»·PEaware :: N196EC KPSP-KSAN

N196EC :: KPSP-KSAN

FLIGHT INFORMATION

Flight Status: Arrived
Operator: Privately registered:
United States
More flights under this callsign
Pilot: Adrián R. (20842)
Aircraft: SOCATA TBM-900
(TBM9)
More flights by this aircraft type
Origin: KPSP Palm Springs Intl
United States
Destination: KSAN San Diego Intl-Lindbergh
United States
More flights between these airports :: More routes between these airports
Route: TRM6 TRM V514 MZB
File this flight plan on PilotEdge
Remarks:
Altitude:
(Current/Filed)
10,000ft
Speed:
(Current/Filed)
261kts
Departed: 26-Nov-18 10:31 AM
Arrived: 26-Nov-18 11:00 AM
Distance/Time
Traveled:
74nm/0:28
Distance/Time
To Go:
Arrived

Flight Plot

Page will automatically refresh every two minutes.


Map Options




Map Legend


Flown Route
Filed Route
Departure Airport
Arrival Airport
Navaid (VOR, NDB)
Fix

Horizontal Profiles

Position Reports

Time Latitude Longitude Heading Altitude Ground
Speed
26-Nov-18 10:09 33.825680 -116.509949 85 480ft 0kts
26-Nov-18 10:10 33.825680 -116.509949 85 480ft 0kts
26-Nov-18 10:11 33.825680 -116.509949 85 480ft 0kts
26-Nov-18 10:12 33.825680 -116.509949 85 480ft 0kts
26-Nov-18 10:13 33.825680 -116.509949 85 480ft 0kts
26-Nov-18 10:14 33.825680 -116.509949 85 480ft 0kts
26-Nov-18 10:15 33.825680 -116.509949 85 480ft 0kts
26-Nov-18 10:16 33.825680 -116.509949 85 480ft 0kts
26-Nov-18 10:17 33.825680 -116.509949 85 480ft 0kts
26-Nov-18 10:18 33.825680 -116.509949 85 480ft 0kts
26-Nov-18 10:19 33.825680 -116.509949 85 480ft 0kts
26-Nov-18 10:20 33.825680 -116.509949 85 480ft 0kts
26-Nov-18 10:21 33.825680 -116.509949 85 480ft 0kts
26-Nov-18 10:22 33.825680 -116.509949 85 480ft 0kts
26-Nov-18 10:23 33.825680 -116.509949 85 480ft 0kts
26-Nov-18 10:24 33.825680 -116.509949 85 480ft 0kts
26-Nov-18 10:25 33.825680 -116.509949 85 480ft 0kts
26-Nov-18 10:26 33.825620 -116.509689 113 480ft 2kts
26-Nov-18 10:27 33.825336 -116.507749 91 480ft 8kts
26-Nov-18 10:28 33.824473 -116.505051 144 480ft 11kts
26-Nov-18 10:29 33.821754 -116.502653 144 480ft 12kts
26-Nov-18 10:30 33.818991 -116.500198 144 480ft 11kts
26-Nov-18 10:31 33.818367 -116.498916 66 480ft 0kts
26-Nov-18 10:32 33.818367 -116.498916 66 480ft 0kts
26-Nov-18 10:33 33.818924 -116.498104 344 480ft 5kts
26-Nov-18 10:34 33.822055 -116.500924 322 480ft 98kts
26-Nov-18 10:35 33.850392 -116.498150 85 2652ft 142kts
26-Nov-18 10:36 33.840389 -116.452971 103 5115ft 145kts
26-Nov-18 10:37 33.831622 -116.402871 100 7343ft 173kts
26-Nov-18 10:38 33.800832 -116.353828 135 9325ft 201kts
26-Nov-18 10:39 33.755863 -116.303328 135 10003ft 250kts
26-Nov-18 10:40 33.702834 -116.243917 135 9975ft 267kts
26-Nov-18 10:41 33.648240 -116.182829 136 9964ft 269kts
26-Nov-18 10:42 33.581372 -116.201291 216 9966ft 272kts
26-Nov-18 10:43 33.520195 -116.254929 216 9963ft 273kts
26-Nov-18 10:44 33.458857 -116.308650 216 9963ft 273kts
26-Nov-18 10:45 33.397573 -116.362227 216 9963ft 273kts
26-Nov-18 10:46 33.336310 -116.415686 216 9963ft 273kts
26-Nov-18 10:47 33.275097 -116.469010 216 9957ft 273kts
26-Nov-18 10:48 33.213721 -116.522372 216 9946ft 273kts
26-Nov-18 10:49 33.152202 -116.575759 215 9939ft 273kts
26-Nov-18 10:50 33.087853 -116.623565 211 9941ft 273kts
26-Nov-18 10:51 33.024017 -116.670101 211 10019ft 273kts
26-Nov-18 10:52 32.956682 -116.718796 209 8631ft 285kts
26-Nov-18 10:53 32.880971 -116.739944 191 7141ft 278kts
26-Nov-18 10:54 32.817328 -116.784657 212 6011ft 249kts
26-Nov-18 10:55 32.760422 -116.826679 211 5713ft 239kts
26-Nov-18 10:56 32.705293 -116.867312 210 5090ft 228kts
26-Nov-18 10:57 32.673819 -116.928906 251 4156ft 231kts
26-Nov-18 10:58 32.686771 -116.997464 286 3446ft 202kts
26-Nov-18 10:59 32.702829 -117.063378 286 2389ft 206kts
26-Nov-18 11:00 32.716091 -117.117805 286 1305ft 117kts
26-Nov-18 11:01 32.724011 -117.150233 287 639ft 94kts
26-Nov-18 11:02 32.731111 -117.179817 288 87ft 91kts
26-Nov-18 11:03 32.734687 -117.190703 35 18ft 1kts
26-Nov-18 11:04 32.734375 -117.188285 106 18ft 13kts
26-Nov-18 11:05 32.733244 -117.183612 106 17ft 14kts
26-Nov-18 11:06 32.732146 -117.179069 106 17ft 13kts
26-Nov-18 11:07 32.732183 -117.177007 198 21ft 1kts
26-Nov-18 11:08 32.732171 -117.177012 195 21ft 0kts
26-Nov-18 11:09 32.732171 -117.177012 195 21ft 0kts
26-Nov-18 11:10 32.732171 -117.177012 195 21ft 0kts
26-Nov-18 11:11 32.732171 -117.177012 195 21ft 0kts
26-Nov-18 11:12 32.732171 -117.177012 195 21ft 0kts
26-Nov-18 11:13 32.732171 -117.177012 195 21ft 0kts
26-Nov-18 11:14 32.732171 -117.177012 195 21ft 0kts
26-Nov-18 11:15 32.732171 -117.177012 195 21ft 0kts
26-Nov-18 11:16 32.732171 -117.177012 195 21ft 0kts

Navigation Log

Ident Type
Flight plan parsing failed, navigation log unavailable